sensor_id;sensor_type;location;lat;lon;timestamp;P1;durP1;ratioP1;P2;durP2;ratioP2
34242;SDS011;20504;43.214;27.920;2022-08-03T06:41:33;3.47;;;3.00;;
34242;SDS011;20504;43.214;27.920;2022-08-03T06:43:59;3.20;;;2.83;;
34242;SDS011;20504;43.214;27.920;2022-08-03T06:49:05;3.55;;;2.50;;
34242;SDS011;20504;43.214;27.920;2022-08-03T07:03:43;4.22;;;3.10;;
34242;SDS011;20504;43.214;27.920;2022-08-03T07:35:48;2.97;;;2.65;;
34242;SDS011;20504;43.214;27.920;2022-08-03T07:38:14;4.67;;;2.50;;
34242;SDS011;20504;43.214;27.920;2022-08-03T07:40:41;7.68;;;2.40;;
34242;SDS011;20504;43.214;27.920;2022-08-03T07:43:10;9.07;;;2.47;;
34242;SDS011;20504;43.214;27.920;2022-08-03T07:45:40;3.10;;;2.00;;
34242;SDS011;20504;43.214;27.920;2022-08-03T07:48:10;7.05;;;2.72;;
34242;SDS011;20504;43.214;27.920;2022-08-03T07:53:01;7.57;;;2.73;;
34242;SDS011;20504;43.214;27.920;2022-08-03T08:01:32;9.90;;;2.17;;
34242;SDS011;20504;43.214;27.920;2022-08-03T08:04:00;5.28;;;2.38;;
34242;SDS011;20504;43.214;27.920;2022-08-03T08:06:26;4.90;;;2.33;;
34242;SDS011;20504;43.214;27.920;2022-08-03T08:08:53;11.00;;;2.67;;
34242;SDS011;20504;43.214;27.920;2022-08-03T08:11:19;7.70;;;2.15;;
34242;SDS011;20504;43.214;27.920;2022-08-03T08:13:47;4.03;;;2.13;;
34242;SDS011;20504;43.214;27.920;2022-08-03T08:16:14;4.50;;;2.22;;
34242;SDS011;20504;43.214;27.920;2022-08-03T08:18:40;2.60;;;2.40;;
34242;SDS011;20504;43.214;27.920;2022-08-03T08:21:06;2.43;;;2.03;;
34242;SDS011;20504;43.214;27.920;2022-08-03T08:23:31;3.10;;;2.57;;
34242;SDS011;20504;43.214;27.920;2022-08-03T08:25:56;3.30;;;2.70;;
34242;SDS011;20504;43.214;27.920;2022-08-03T08:28:22;3.70;;;2.25;;
34242;SDS011;20504;43.214;27.920;2022-08-03T08:30:48;2.60;;;2.40;;
34242;SDS011;20504;43.214;27.920;2022-08-03T08:33:13;5.95;;;2.53;;
34242;SDS011;20504;43.214;27.920;2022-08-03T08:44:09;6.45;;;3.40;;
34242;SDS011;20504;43.214;27.920;2022-08-03T08:46:38;7.43;;;2.75;;
34242;SDS011;20504;43.214;27.920;2022-08-03T08:49:12;6.35;;;2.55;;
34242;SDS011;20504;43.214;27.920;2022-08-03T09:03:28;5.32;;;2.45;;
34242;SDS011;20504;43.214;27.920;2022-08-03T09:06:45;2.15;;;1.95;;
34242;SDS011;20504;43.214;27.920;2022-08-03T09:23:08;4.88;;;2.53;;
34242;SDS011;20504;43.214;27.920;2022-08-03T09:34:51;2.72;;;2.10;;
34242;SDS011;20504;43.214;27.920;2022-08-03T09:41:07;4.47;;;2.63;;
34242;SDS011;20504;43.214;27.920;2022-08-03T09:43:54;6.80;;;3.00;;
34242;SDS011;20504;43.214;27.920;2022-08-03T09:59:34;5.78;;;2.33;;
34242;SDS011;20504;43.214;27.920;2022-08-03T10:02:26;3.38;;;2.15;;
34242;SDS011;20504;43.214;27.920;2022-08-03T10:07:53;3.95;;;2.70;;
34242;SDS011;20504;43.214;27.920;2022-08-03T10:13:42;5.25;;;2.63;;
34242;SDS011;20504;43.214;27.920;2022-08-03T10:16:20;7.78;;;3.30;;
34242;SDS011;20504;43.214;27.920;2022-08-03T10:34:41;5.75;;;3.80;;
34242;SDS011;20504;43.214;27.920;2022-08-03T10:37:09;7.55;;;3.97;;
34242;SDS011;20504;43.214;27.920;2022-08-03T10:39:46;4.65;;;3.65;;
34242;SDS011;20504;43.214;27.920;2022-08-03T10:51:05;4.00;;;3.20;;
34242;SDS011;20504;43.214;27.920;2022-08-03T10:53:36;3.40;;;3.10;;
34242;SDS011;20504;43.214;27.920;2022-08-03T10:56:04;5.43;;;2.90;;
34242;SDS011;20504;43.214;27.920;2022-08-03T10:58:51;5.50;;;3.20;;
34242;SDS011;20504;43.214;27.920;2022-08-03T11:01:54;6.75;;;3.45;;
34242;SDS011;20504;43.214;27.920;2022-08-03T11:09:44;6.40;;;3.72;;
34242;SDS011;20504;43.214;27.920;2022-08-03T11:45:16;6.03;;;2.85;;
34242;SDS011;20504;43.214;27.920;2022-08-03T11:48:13;13.48;;;2.95;;
34242;SDS011;20504;43.214;27.920;2022-08-03T11:50:51;5.78;;;2.45;;
34242;SDS011;20504;43.214;27.920;2022-08-03T11:53:20;7.57;;;3.08;;
34242;SDS011;20504;43.214;27.920;2022-08-03T11:55:48;6.22;;;2.40;;
34242;SDS011;20504;43.214;27.920;2022-08-03T11:58:22;4.18;;;2.67;;
34242;SDS011;20504;43.214;27.920;2022-08-03T12:01:12;5.45;;;2.45;;
34242;SDS011;20504;43.214;27.920;2022-08-03T12:03:50;3.03;;;2.35;;
34242;SDS011;20504;43.214;27.920;2022-08-03T12:22:45;5.13;;;1.92;;
34242;SDS011;20504;43.214;27.920;2022-08-03T12:28:11;3.23;;;2.70;;
34242;SDS011;20504;43.214;27.920;2022-08-03T12:30:37;3.60;;;2.10;;
34242;SDS011;20504;43.214;27.920;2022-08-03T12:33:22;4.47;;;2.45;;
34242;SDS011;20504;43.214;27.920;2022-08-03T12:36:02;6.72;;;1.92;;
34242;SDS011;20504;43.214;27.920;2022-08-03T12:38:29;4.82;;;2.05;;
34242;SDS011;20504;43.214;27.920;2022-08-03T12:41:06;3.25;;;2.28;;
34242;SDS011;20504;43.214;27.920;2022-08-03T12:43:46;4.85;;;2.30;;
34242;SDS011;20504;43.214;27.920;2022-08-03T12:49:46;4.18;;;2.10;;
34242;SDS011;20504;43.214;27.920;2022-08-03T12:52:12;3.78;;;2.40;;
34242;SDS011;20504;43.214;27.920;2022-08-03T12:57:47;4.68;;;2.10;;
34242;SDS011;20504;43.214;27.920;2022-08-03T13:00:14;4.25;;;2.10;;
34242;SDS011;20504;43.214;27.920;2022-08-03T13:02:41;2.92;;;2.63;;
34242;SDS011;20504;43.214;27.920;2022-08-03T13:05:11;4.15;;;2.20;;
34242;SDS011;20504;43.214;27.920;2022-08-03T13:07:44;3.60;;;2.00;;
34242;SDS011;20504;43.214;27.920;2022-08-03T13:10:44;2.00;;;1.80;;
34242;SDS011;20504;43.214;27.920;2022-08-03T13:13:14;7.95;;;2.60;;
34242;SDS011;20504;43.214;27.920;2022-08-03T13:15:44;3.92;;;2.17;;
34242;SDS011;20504;43.214;27.920;2022-08-03T13:18:12;3.55;;;2.10;;
34242;SDS011;20504;43.214;27.920;2022-08-03T13:20:52;4.13;;;1.95;;
34242;SDS011;20504;43.214;27.920;2022-08-03T13:23:25;4.18;;;1.98;;
34242;SDS011;20504;43.214;27.920;2022-08-03T13:29:00;3.08;;;2.13;;
34242;SDS011;20504;43.214;27.920;2022-08-03T13:31:25;3.05;;;2.08;;
34242;SDS011;20504;43.214;27.920;2022-08-03T13:33:51;3.38;;;1.95;;
34242;SDS011;20504;43.214;27.920;2022-08-03T13:36:16;9.50;;;2.80;;
34242;SDS011;20504;43.214;27.920;2022-08-03T13:38:42;3.05;;;2.30;;
34242;SDS011;20504;43.214;27.920;2022-08-03T13:41:10;3.72;;;2.30;;
34242;SDS011;20504;43.214;27.920;2022-08-03T13:43:42;3.30;;;2.58;;
34242;SDS011;20504;43.214;27.920;2022-08-03T13:46:07;2.72;;;2.47;;
34242;SDS011;20504;43.214;27.920;2022-08-03T13:48:44;5.60;;;2.30;;
34242;SDS011;20504;43.214;27.920;2022-08-03T13:51:09;2.25;;;1.70;;
34242;SDS011;20504;43.214;27.920;2022-08-03T13:53:36;2.92;;;1.90;;
34242;SDS011;20504;43.214;27.920;2022-08-03T13:56:30;2.80;;;2.03;;
34242;SDS011;20504;43.214;27.920;2022-08-03T13:58:58;3.63;;;2.30;;
34242;SDS011;20504;43.214;27.920;2022-08-03T14:02:05;5.68;;;2.22;;
34242;SDS011;20504;43.214;27.920;2022-08-03T14:04:34;3.92;;;2.97;;
34242;SDS011;20504;43.214;27.920;2022-08-03T14:06:59;6.88;;;2.83;;
34242;SDS011;20504;43.214;27.920;2022-08-03T14:09:25;5.47;;;3.33;;
34242;SDS011;20504;43.214;27.920;2022-08-03T14:11:50;6.90;;;3.33;;
34242;SDS011;20504;43.214;27.920;2022-08-03T14:14:16;4.05;;;2.50;;
34242;SDS011;20504;43.214;27.920;2022-08-03T14:16:41;5.78;;;3.92;;
34242;SDS011;20504;43.214;27.920;2022-08-03T14:19:07;4.20;;;2.22;;
34242;SDS011;20504;43.214;27.920;2022-08-03T14:21:51;3.10;;;2.33;;
34242;SDS011;20504;43.214;27.920;2022-08-03T14:24:17;2.53;;;2.30;;
34242;SDS011;20504;43.214;27.920;2022-08-03T14:26:42;2.38;;;1.70;;
34242;SDS011;20504;43.214;27.920;2022-08-03T14:29:08;3.80;;;1.98;;
34242;SDS011;20504;43.214;27.920;2022-08-03T14:31:33;3.00;;;2.13;;
34242;SDS011;20504;43.214;27.920;2022-08-03T14:33:59;6.05;;;1.88;;
34242;SDS011;20504;43.214;27.920;2022-08-03T14:36:27;1.92;;;1.63;;
34242;SDS011;20504;43.214;27.920;2022-08-03T14:38:53;3.40;;;1.98;;
34242;SDS011;20504;43.214;27.920;2022-08-03T14:41:18;5.80;;;2.20;;
34242;SDS011;20504;43.214;27.920;2022-08-03T14:43:44;2.90;;;2.70;;
34242;SDS011;20504;43.214;27.920;2022-08-03T14:46:09;3.60;;;1.92;;
34242;SDS011;20504;43.214;27.920;2022-08-03T14:48:35;4.60;;;2.20;;
34242;SDS011;20504;43.214;27.920;2022-08-03T14:51:00;2.67;;;2.10;;
34242;SDS011;20504;43.214;27.920;2022-08-03T14:53:26;2.58;;;2.00;;
34242;SDS011;20504;43.214;27.920;2022-08-03T14:55:52;2.60;;;2.33;;
34242;SDS011;20504;43.214;27.920;2022-08-03T14:58:19;5.70;;;1.80;;
34242;SDS011;20504;43.214;27.920;2022-08-03T15:00:44;3.45;;;1.70;;
34242;SDS011;20504;43.214;27.920;2022-08-03T15:03:10;5.97;;;2.30;;
34242;SDS011;20504;43.214;27.920;2022-08-03T15:05:35;3.88;;;2.17;;
34242;SDS011;20504;43.214;27.920;2022-08-03T15:08:00;4.60;;;2.20;;
34242;SDS011;20504;43.214;27.920;2022-08-03T15:10:38;6.82;;;2.15;;
34242;SDS011;20504;43.214;27.920;2022-08-03T15:13:31;3.38;;;2.00;;
34242;SDS011;20504;43.214;27.920;2022-08-03T15:16:00;6.28;;;2.17;;
34242;SDS011;20504;43.214;27.920;2022-08-03T15:18:25;3.03;;;2.10;;
34242;SDS011;20504;43.214;27.920;2022-08-03T15:20:51;3.65;;;1.90;;
34242;SDS011;20504;43.214;27.920;2022-08-03T15:23:16;5.28;;;2.30;;
34242;SDS011;20504;43.214;27.920;2022-08-03T15:25:43;2.45;;;1.92;;
34242;SDS011;20504;43.214;27.920;2022-08-03T15:28:08;3.97;;;1.98;;
34242;SDS011;20504;43.214;27.920;2022-08-03T15:30:34;4.15;;;1.98;;
34242;SDS011;20504;43.214;27.920;2022-08-03T15:33:01;5.72;;;2.85;;
34242;SDS011;20504;43.214;27.920;2022-08-03T15:35:27;4.28;;;2.88;;
34242;SDS011;20504;43.214;27.920;2022-08-03T15:37:53;8.05;;;3.03;;
34242;SDS011;20504;43.214;27.920;2022-08-03T15:40:21;3.08;;;2.00;;
34242;SDS011;20504;43.214;27.920;2022-08-03T15:45:22;4.70;;;2.22;;
34242;SDS011;20504;43.214;27.920;2022-08-03T15:47:51;3.50;;;2.30;;
34242;SDS011;20504;43.214;27.920;2022-08-03T15:53:31;3.63;;;2.45;;
34242;SDS011;20504;43.214;27.920;2022-08-03T15:56:38;4.78;;;2.30;;
34242;SDS011;20504;43.214;27.920;2022-08-03T16:01:46;4.95;;;2.63;;
34242;SDS011;20504;43.214;27.920;2022-08-03T19:46:57;9.35;;;5.72;;
34242;SDS011;20504;43.214;27.920;2022-08-03T19:49:29;10.32;;;5.85;;
34242;SDS011;20504;43.214;27.920;2022-08-03T19:52:01;7.88;;;5.93;;
34242;SDS011;20504;43.214;27.920;2022-08-03T19:54:37;12.50;;;6.25;;
34242;SDS011;20504;43.214;27.920;2022-08-03T19:57:25;18.20;;;5.80;;
